Time;durP1;ratioP1;P1;durP2;ratioP2;P2;SDS_P1;SDS_P2;PMS_P1;PMS_P2;Temp;Humidity;BMP_temperature;BMP_pressure;BME280_temperature;BME280_humidity;BME280_pressure;Samples;Min_cycle;Max_cycle;Signal;HPM_P1;HPM_P2
2023/11/28 00:00:11;;;;;;;;;;;;;;;5.13;49.57;99286.03;5052486;28;19920;-77
2023/11/28 00:02:37;;;;;;;;;;;;;;;5.03;47.70;99280.88;5052410;28;20352;-77
2023/11/28 00:05:03;;;;;;;;;;;;;;;5.03;48.42;99278.25;5052730;28;19913;-78
2023/11/28 00:07:30;;;;;;;;;;;;;;;5.02;48.02;99281.03;5053167;28;20403;-77
2023/11/28 00:09:56;;;;;;;;;;;;;;;5.00;47.99;99281.19;5052123;28;19955;-77
2023/11/28 00:12:22;;;;;;;;;;;;;;;4.97;48.63;99278.88;5051937;28;19948;-78
2023/11/28 00:14:49;;;;;;;;;;;;;;;4.96;48.67;99286.84;5051996;28;19948;-77
2023/11/28 00:17:14;;;;;;;;;;;;;;;4.83;47.92;99274.16;5051690;28;19913;-78
2023/11/28 00:19:39;;;;;;;;;;;;;;;4.91;46.71;99287.31;5051903;28;19955;-77
2023/11/28 00:22:05;;;;;;;;;;;;;;;4.90;47.87;99287.44;5052607;28;19917;-77
2023/11/28 00:24:30;;;;;;;;;;;;;;;4.89;47.96;99297.09;5052524;28;19917;-77
2023/11/28 00:26:55;;;;;;;;;;;;;;;4.90;49.25;99300.53;5052650;28;19966;-78
2023/11/28 00:29:21;;;;;;;;;;;;;;;4.86;49.31;99297.38;5052580;28;19936;-76
2023/11/28 00:31:46;;;;;;;;;;;;;;;4.80;49.62;99295.38;5052486;28;19917;-77
2023/11/28 00:34:12;;;;;;;;;;;;;;;4.72;49.67;99309.19;5052480;28;19913;-77
2023/11/28 00:36:37;;;;;;;;;;;;;;;4.68;50.56;99302.59;5051300;28;20382;-77
2023/11/28 00:39:03;;;;;;;;;;;;;;;4.67;51.04;99313.19;5051280;28;19980;-77
2023/11/28 00:41:28;;;;;;;;;;;;;;;4.63;50.90;99312.66;5051512;28;19916;-76
2023/11/28 00:43:55;;;;;;;;;;;;;;;4.61;51.34;99314.59;5051114;28;20369;-77
2023/11/28 00:46:21;;;;;;;;;;;;;;;4.58;51.51;99311.47;5051120;28;19917;-77
2023/11/28 00:48:47;;;;;;;;;;;;;;;4.54;51.42;99304.88;5051553;28;19991;-77
2023/11/28 00:51:14;;;;;;;;;;;;;;;4.47;51.47;99287.16;5051820;28;19913;-78
2023/11/28 00:53:39;;;;;;;;;;;;;;;4.42;51.95;99271.06;5052078;28;19913;-77
2023/11/28 00:56:05;;;;;;;;;;;;;;;4.38;52.14;99277.53;5052160;28;19912;-76
2023/11/28 00:58:30;;;;;;;;;;;;;;;4.31;51.92;99268.63;5052541;28;19913;-77
2023/11/28 01:00:56;;;;;;;;;;;;;;;4.25;51.95;99273.63;5034527;28;19913;-77
2023/11/28 01:03:22;;;;;;;;;;;;;;;4.25;52.35;99271.00;5052702;28;19935;-77
2023/11/28 01:05:47;;;;;;;;;;;;;;;4.18;52.63;99262.91;5052167;28;20307;-77
2023/11/28 01:08:13;;;;;;;;;;;;;;;4.12;53.06;99268.72;5052433;28;19920;-78
2023/11/28 01:10:38;;;;;;;;;;;;;;;4.10;53.02;99258.41;5052729;28;20404;-77
2023/11/28 01:13:03;;;;;;;;;;;;;;;4.11;53.28;99259.22;5053050;28;19916;-77
2023/11/28 01:15:29;;;;;;;;;;;;;;;4.09;53.57;99263.78;5056439;28;20377;-77
2023/11/28 01:17:55;;;;;;;;;;;;;;;4.07;53.52;99255.25;5055792;28;19913;-74
2023/11/28 01:20:21;;;;;;;;;;;;;;;4.08;53.76;99259.53;5057746;28;19919;-77
2023/11/28 01:22:46;;;;;;;;;;;;;;;4.03;53.72;99248.69;5057995;28;19919;-77
2023/11/28 01:25:12;;;;;;;;;;;;;;;3.99;53.64;99248.16;5056067;28;19912;-75
2023/11/28 01:27:37;;;;;;;;;;;;;;;3.96;53.77;99239.78;5054613;28;19917;-76
2023/11/28 01:30:03;;;;;;;;;;;;;;;3.92;53.90;99231.41;5055125;28;19965;-77
2023/11/28 01:32:28;;;;;;;;;;;;;;;3.88;54.07;99224.00;5055127;28;19913;-78
2023/11/28 01:34:53;;;;;;;;;;;;;;;3.86;53.73;99225.94;5055121;28;19913;-76
2023/11/28 01:37:19;;;;;;;;;;;;;;;3.86;53.99;99218.09;5055068;28;19912;-77
2023/11/28 01:39:44;;;;;;;;;;;;;;;3.85;53.73;99214.66;5055310;28;19978;-77
2023/11/28 01:42:10;;;;;;;;;;;;;;;3.87;53.99;99207.50;5055381;28;19940;-77
2023/11/28 01:44:35;;;;;;;;;;;;;;;3.89;53.83;99202.97;5055396;28;19936;-76
2023/11/28 01:47:01;;;;;;;;;;;;;;;3.89;54.38;99194.31;5055087;28;19923;-76
2023/11/28 01:49:32;;;;;;;;;;;;;;;3.88;54.25;99190.88;5055112;28;20328;-77
2023/11/28 01:51:58;;;;;;;;;;;;;;;3.86;54.19;99189.38;5055217;28;19917;-77
2023/11/28 01:54:24;;;;;;;;;;;;;;;3.86;53.79;99184.97;5054635;28;20381;-76
2023/11/28 01:56:49;;;;;;;;;;;;;;;3.81;53.98;99180.19;5053848;28;19958;-77
2023/11/28 01:59:15;;;;;;;;;;;;;;;3.82;54.47;99186.22;5055095;28;19952;-76
2023/11/28 02:01:42;;;;;;;;;;;;;;;3.80;54.61;99181.16;5054158;28;20353;-77
2023/11/28 02:04:08;;;;;;;;;;;;;;;3.82;54.38;99181.81;5054647;28;19912;-77
2023/11/28 02:06:34;;;;;;;;;;;;;;;3.86;54.49;99184.16;5054737;28;20375;-77
2023/11/28 02:08:59;;;;;;;;;;;;;;;3.82;54.36;99178.38;5054777;28;19970;-77
2023/11/28 02:11:25;;;;;;;;;;;;;;;3.79;54.49;99166.44;5054514;28;19913;-77
2023/11/28 02:13:50;;;;;;;;;;;;;;;3.77;54.61;99159.72;5054657;28;19919;-76
2023/11/28 02:16:16;;;;;;;;;;;;;;;3.79;54.87;99148.16;5054671;28;20055;-77
2023/11/28 02:18:42;;;;;;;;;;;;;;;3.82;54.57;99136.59;5054450;28;19920;-77
2023/11/28 02:21:09;;;;;;;;;;;;;;;3.82;54.75;99137.44;5053798;28;19923;-77
2023/11/28 02:23:34;;;;;;;;;;;;;;;3.85;54.42;99132.88;5054046;28;20374;-76
2023/11/28 02:26:05;;;;;;;;;;;;;;;3.87;54.18;99133.56;5053664;28;19924;-77
2023/11/28 02:28:30;;;;;;;;;;;;;;;3.87;54.23;99142.22;5053876;28;19912;-77
2023/11/28 02:30:57;;;;;;;;;;;;;;;3.91;54.41;99140.13;5054034;28;20386;-77
2023/11/28 02:33:22;;;;;;;;;;;;;;;3.95;54.17;99136.28;5053648;28;19919;-76
2023/11/28 02:35:47;;;;;;;;;;;;;;;3.98;53.68;99139.41;5053838;28;19917;-77
2023/11/28 02:38:13;;;;;;;;;;;;;;;3.99;53.83;99137.63;5053378;28;19920;-76
2023/11/28 02:40:39;;;;;;;;;;;;;;;4.00;54.04;99134.88;5054063;28;19913;-77
2023/11/28 02:43:04;;;;;;;;;;;;;;;4.04;54.22;99132.78;5053063;28;20390;-77
2023/11/28 02:45:29;;;;;;;;;;;;;;;4.07;54.60;99122.84;5053122;28;20054;-77
2023/11/28 02:47:55;;;;;;;;;;;;;;;4.09;54.38;99127.94;5053250;28;19917;-77
2023/11/28 02:50:20;;;;;;;;;;;;;;;4.09;54.31;99127.94;5053633;28;20448;-76
2023/11/28 02:52:45;;;;;;;;;;;;;;;4.12;54.52;99127.63;5054370;28;19912;-76
2023/11/28 02:55:11;;;;;;;;;;;;;;;4.14;54.38;99123.91;5054368;28;19913;-76
2023/11/28 02:57:36;;;;;;;;;;;;;;;4.19;53.74;99117.41;5054295;28;19913;-77
2023/11/28 03:00:04;;;;;;;;;;;;;;;4.24;53.77;99108.16;5054644;28;19920;-77
2023/11/28 03:02:30;;;;;;;;;;;;;;;4.29;53.78;99107.72;5054918;28;20435;-77
2023/11/28 03:04:55;;;;;;;;;;;;;;;4.37;53.75;99105.19;5054350;28;19917;-76
2023/11/28 03:07:21;;;;;;;;;;;;;;;4.38;53.65;99097.19;5052992;28;19917;-77
2023/11/28 03:09:46;;;;;;;;;;;;;;;4.43;53.85;99089.72;5053222;28;19913;-76
2023/11/28 03:12:11;;;;;;;;;;;;;;;4.46;53.79;99091.25;5053184;28;19920;-76
2023/11/28 03:14:37;;;;;;;;;;;;;;;4.46;54.13;99086.84;5053196;28;20371;-77
2023/11/28 03:17:02;;;;;;;;;;;;;;;4.46;54.03;99086.03;5053460;28;19913;-76
2023/11/28 03:19:28;;;;;;;;;;;;;;;4.45;54.22;99077.31;5053036;28;19913;-76
2023/11/28 03:21:53;;;;;;;;;;;;;;;4.43;54.49;99076.66;5053145;28;19920;-76
2023/11/28 03:24:19;;;;;;;;;;;;;;;4.44;54.54;99067.84;5053485;28;19917;-76
2023/11/28 03:26:44;;;;;;;;;;;;;;;4.44;54.32;99072.25;5053125;28;19971;-76
2023/11/28 03:29:10;;;;;;;;;;;;;;;4.54;52.95;99062.56;5053040;28;20393;-78
2023/11/28 03:31:35;;;;;;;;;;;;;;;4.66;52.82;99050.88;5052928;28;20294;-76
2023/11/28 03:34:00;;;;;;;;;;;;;;;4.80;52.53;99052.13;5052828;28;20328;-76
2023/11/28 03:36:26;;;;;;;;;;;;;;;4.93;52.56;99042.06;5052050;28;19920;-77
2023/11/28 03:38:53;;;;;;;;;;;;;;;5.07;52.09;99032.84;5052879;28;19920;-77
2023/11/28 03:41:19;;;;;;;;;;;;;;;5.21;50.47;99024.44;5053163;28;20378;-76
2023/11/28 03:43:44;;;;;;;;;;;;;;;5.36;50.14;99030.72;5052672;28;19912;-76
2023/11/28 03:46:09;;;;;;;;;;;;;;;5.49;50.14;99029.44;5052653;28;19917;-77
2023/11/28 03:48:34;;;;;;;;;;;;;;;5.57;50.13;99027.69;5052555;28;19920;-77
2023/11/28 03:51:00;;;;;;;;;;;;;;;5.66;50.14;99031.16;5052055;28;19912;-75
2023/11/28 03:53:25;;;;;;;;;;;;;;;5.73;49.30;99024.28;5052297;28;19916;-77
2023/11/28 03:55:50;;;;;;;;;;;;;;;5.81;49.43;99026.09;5051822;28;20380;-78
2023/11/28 03:58:16;;;;;;;;;;;;;;;5.85;49.83;99019.56;5051738;28;19916;-77
2023/11/28 04:00:41;;;;;;;;;;;;;;;5.89;49.42;99015.66;5051857;28;19948;-77
2023/11/28 04:03:07;;;;;;;;;;;;;;;5.92;48.61;99010.94;5051975;28;19920;-77
2023/11/28 04:05:32;;;;;;;;;;;;;;;5.93;49.74;99012.56;5051663;28;20337;-77
2023/11/28 04:07:57;;;;;;;;;;;;;;;5.95;49.37;99017.69;5051669;28;20369;-78
2023/11/28 04:10:23;;;;;;;;;;;;;;;5.96;48.31;99016.69;5051686;28;20421;-78
2023/11/28 04:12:48;;;;;;;;;;;;;;;5.99;49.64;99025.06;5051695;28;19913;-77
2023/11/28 04:15:13;;;;;;;;;;;;;;;5.99;49.53;99026.84;5051811;28;19970;-76
2023/11/28 04:17:39;;;;;;;;;;;;;;;5.99;49.58;99030.31;5051545;28;19912;-77
2023/11/28 04:20:06;;;;;;;;;;;;;;;5.97;49.35;99020.97;5051339;28;20294;-76
2023/11/28 04:22:31;;;;;;;;;;;;;;;5.93;49.50;99019.63;5051364;28;19920;-76
2023/11/28 04:24:56;;;;;;;;;;;;;;;5.89;50.56;99016.50;5033600;28;19913;-76
2023/11/28 04:27:22;;;;;;;;;;;;;;;5.88;50.53;99008.75;5051591;28;19992;-76
2023/11/28 04:29:47;;;;;;;;;;;;;;;5.85;50.58;99016.94;5051899;28;19943;-76
2023/11/28 04:32:12;;;;;;;;;;;;;;;5.83;50.38;99011.88;5051596;28;20382;-76
2023/11/28 04:34:38;;;;;;;;;;;;;;;5.81;50.81;99015.63;5051541;28;19917;-76
2023/11/28 04:37:03;;;;;;;;;;;;;;;5.77;50.79;99012.50;5051373;28;19971;-77
2023/11/28 04:39:28;;;;;;;;;;;;;;;5.78;51.21;99006.28;5051626;28;19913;-77
2023/11/28 04:41:53;;;;;;;;;;;;;;;5.76;51.01;99010.88;5051644;28;20492;-76
2023/11/28 04:44:19;;;;;;;;;;;;;;;5.72;51.71;99002.50;5054512;28;19913;-76
2023/11/28 04:46:44;;;;;;;;;;;;;;;5.69;51.52;99009.88;5052712;28;19917;-76
2023/11/28 04:49:12;;;;;;;;;;;;;;;5.68;51.64;99014.28;5053629;28;19974;-77
2023/11/28 04:51:38;;;;;;;;;;;;;;;5.66;51.49;99000.53;5055233;28;19913;-77
2023/11/28 04:54:03;;;;;;;;;;;;;;;5.62;51.65;99001.84;5055145;28;19913;-76
2023/11/28 04:56:28;;;;;;;;;;;;;;;5.59;52.40;98985.63;5053615;28;19913;-76
2023/11/28 04:58:54;;;;;;;;;;;;;;;5.57;52.17;98975.31;5055254;28;19952;-77
2023/11/28 05:01:20;;;;;;;;;;;;;;;5.56;52.85;98978.91;5054810;28;19913;-77
2023/11/28 05:03:45;;;;;;;;;;;;;;;5.55;52.48;98981.69;5054774;28;19920;-76
2023/11/28 05:06:11;;;;;;;;;;;;;;;5.54;53.09;98967.78;5054691;28;19921;-76
2023/11/28 05:08:36;;;;;;;;;;;;;;;5.56;52.97;98970.22;5053846;28;19913;-76
2023/11/28 05:11:05;;;;;;;;;;;;;;;5.61;53.12;98965.34;5054926;28;19913;-77
2023/11/28 05:13:30;;;;;;;;;;;;;;;5.65;52.55;98961.41;5054504;28;19919;-78
2023/11/28 05:15:56;;;;;;;;;;;;;;;5.70;52.39;98959.94;5055039;28;19912;-77
2023/11/28 05:18:21;;;;;;;;;;;;;;;5.73;52.52;98956.19;5054712;28;19991;-77
2023/11/28 05:20:46;;;;;;;;;;;;;;;5.72;52.78;98954.56;5054568;28;20313;-77
2023/11/28 05:23:11;;;;;;;;;;;;;;;5.67;53.16;98952.41;5054653;28;19920;-77
2023/11/28 05:25:37;;;;;;;;;;;;;;;5.64;53.57;98960.59;5054572;28;19917;-77
2023/11/28 05:28:02;;;;;;;;;;;;;;;5.58;53.35;98955.19;5054542;28;19920;-77
2023/11/28 05:30:27;;;;;;;;;;;;;;;5.55;53.18;98958.94;5054554;28;19913;-78
2023/11/28 05:32:53;;;;;;;;;;;;;;;5.51;53.67;98960.25;5054348;28;19917;-76
2023/11/28 05:35:18;;;;;;;;;;;;;;;5.49;53.70;98956.13;5054519;28;19917;-76
2023/11/28 05:37:43;;;;;;;;;;;;;;;5.45;53.79;98970.53;5054620;28;19913;-77
2023/11/28 05:40:09;;;;;;;;;;;;;;;5.44;54.02;98959.25;5054760;28;20380;-77
2023/11/28 05:42:34;;;;;;;;;;;;;;;5.43;54.58;98955.81;5054260;28;19913;-77
2023/11/28 05:45:00;;;;;;;;;;;;;;;5.43;54.08;98942.72;5054413;28;19913;-77
2023/11/28 05:47:25;;;;;;;;;;;;;;;5.45;54.23;98933.88;5054037;28;19917;-78
2023/11/28 05:49:50;;;;;;;;;;;;;;;5.47;54.27;98931.91;5054146;28;19919;-77
2023/11/28 05:52:16;;;;;;;;;;;;;;;5.47;54.11;98937.16;5054179;28;19935;-77
2023/11/28 05:54:41;;;;;;;;;;;;;;;5.47;54.90;98939.78;5054321;28;20385;-77
2023/11/28 05:57:06;;;;;;;;;;;;;;;5.45;54.59;98949.59;5053765;28;19913;-78
2023/11/28 05:59:32;;;;;;;;;;;;;;;5.46;54.63;98953.84;5053606;28;19913;-77
2023/11/28 06:02:03;;;;;;;;;;;;;;;5.48;54.95;98954.50;5053944;28;20357;-76
2023/11/28 06:04:29;;;;;;;;;;;;;;;5.45;54.55;98942.56;5053966;28;19920;-77
2023/11/28 06:06:54;;;;;;;;;;;;;;;5.44;55.46;98933.06;5053853;28;19921;-77
2023/11/28 06:09:20;;;;;;;;;;;;;;;5.40;55.17;98922.09;5053839;28;19919;-77
2023/11/28 06:11:46;;;;;;;;;;;;;;;5.38;55.12;98920.59;5053844;28;19913;-78
2023/11/28 06:14:12;;;;;;;;;;;;;;;5.39;55.25;98925.69;5055797;28;19912;-78
2023/11/28 06:16:37;;;;;;;;;;;;;;;5.41;55.14;98918.50;5074362;28;20370;-76
2023/11/28 06:19:03;;;;;;;;;;;;;;;5.43;55.33;98906.06;5073781;28;19913;-76
2023/11/28 06:21:28;;;;;;;;;;;;;;;5.50;55.86;98916.72;5074889;28;19963;-77
2023/11/28 06:23:54;;;;;;;;;;;;;;;5.56;55.08;98910.00;5073322;28;19970;-77
2023/11/28 06:26:19;;;;;;;;;;;;;;;5.68;55.09;98912.16;5073611;28;19916;-76
2023/11/28 06:28:44;;;;;;;;;;;;;;;5.79;54.63;98918.88;5073607;28;20358;-76
2023/11/28 06:31:10;;;;;;;;;;;;;;;5.92;53.79;98931.50;5073222;28;19920;-77
2023/11/28 06:33:35;;;;;;;;;;;;;;;6.06;53.67;98917.78;5073131;28;19967;-76
2023/11/28 06:36:01;;;;;;;;;;;;;;;6.17;54.00;98909.59;5073194;28;20306;-76
2023/11/28 06:38:26;;;;;;;;;;;;;;;6.28;53.04;98898.75;5073171;28;20385;-77
2023/11/28 06:40:51;;;;;;;;;;;;;;;6.34;52.90;98876.31;5073204;28;19913;-76
2023/11/28 06:43:17;;;;;;;;;;;;;;;6.42;52.33;98871.03;5055062;28;20264;-77
2023/11/28 06:45:43;;;;;;;;;;;;;;;6.46;52.78;98869.72;5072811;28;19912;-76
2023/11/28 06:48:08;;;;;;;;;;;;;;;6.50;52.75;98865.78;5072979;28;20423;-75
2023/11/28 06:50:33;;;;;;;;;;;;;;;6.55;52.88;98857.41;5073027;28;19995;-76
2023/11/28 06:52:59;;;;;;;;;;;;;;;6.53;52.95;98862.81;5072815;28;20007;-77
2023/11/28 06:55:24;;;;;;;;;;;;;;;6.59;53.06;98859.50;5072657;28;20309;-77
2023/11/28 06:57:50;;;;;;;;;;;;;;;6.57;52.88;98861.47;5072545;28;19912;-77
2023/11/28 07:00:15;;;;;;;;;;;;;;;6.60;52.63;98844.59;5083541;28;19916;-75
2023/11/28 07:02:40;;;;;;;;;;;;;;;6.56;53.04;98838.06;5092796;28;19912;-78
2023/11/28 07:05:07;;;;;;;;;;;;;;;6.55;53.48;98832.00;5080418;28;20062;-77
2023/11/28 07:07:33;;;;;;;;;;;;;;;6.52;53.95;98823.66;5074972;28;19977;-76
2023/11/28 07:09:58;;;;;;;;;;;;;;;6.49;53.55;98826.59;5091141;28;20411;-77
2023/11/28 07:12:24;;;;;;;;;;;;;;;6.48;54.16;98825.78;5087238;28;19923;-78
2023/11/28 07:14:50;;;;;;;;;;;;;;;6.48;53.45;98819.72;5071709;28;19973;-77
2023/11/28 07:17:16;;;;;;;;;;;;;;;6.48;53.80;98823.16;5073405;28;19993;-76
2023/11/28 07:19:41;;;;;;;;;;;;;;;6.51;54.16;98817.56;5073627;28;19908;-77
2023/11/28 07:22:07;;;;;;;;;;;;;;;6.53;54.72;98818.22;5081849;28;20289;-77
2023/11/28 07:24:32;;;;;;;;;;;;;;;6.60;55.32;98818.38;5072398;28;19962;-76
2023/11/28 07:26:57;;;;;;;;;;;;;;;6.67;53.92;98811.44;5072292;28;19916;-77
2023/11/28 07:29:23;;;;;;;;;;;;;;;6.65;55.54;98798.50;5072115;28;19935;-76
2023/11/28 07:31:48;;;;;;;;;;;;;;;6.70;54.97;98787.53;5072166;28;19913;-78
2023/11/28 07:34:13;;;;;;;;;;;;;;;6.68;54.58;98782.41;5077528;28;20011;-77
2023/11/28 07:36:39;;;;;;;;;;;;;;;6.69;55.16;98772.78;5078217;28;19924;-77
2023/11/28 07:39:04;;;;;;;;;;;;;;;6.67;55.66;98759.00;5071928;28;20026;-77
2023/11/28 07:41:29;;;;;;;;;;;;;;;6.69;54.46;98757.03;5071985;28;19913;-77
2023/11/28 07:43:55;;;;;;;;;;;;;;;6.66;56.42;98758.16;5072898;28;20329;-76
2023/11/28 07:46:20;;;;;;;;;;;;;;;6.66;56.36;98759.97;5091832;28;19924;-77
2023/11/28 07:48:45;;;;;;;;;;;;;;;6.69;56.32;98754.41;5092518;28;20388;-77
2023/11/28 07:51:11;;;;;;;;;;;;;;;6.72;55.67;98758.50;5088002;28;19973;-76
2023/11/28 07:53:36;;;;;;;;;;;;;;;6.73;56.30;98753.09;5073583;28;19920;-78
2023/11/28 07:56:03;;;;;;;;;;;;;;;6.79;54.97;98748.94;5071693;28;19913;-77
2023/11/28 07:58:29;;;;;;;;;;;;;;;6.80;55.59;98740.09;5073342;28;19920;-76
2023/11/28 08:00:54;;;;;;;;;;;;;;;6.80;55.75;98746.16;5063412;28;19913;-76
2023/11/28 08:03:20;;;;;;;;;;;;;;;6.80;56.37;98738.28;5051671;28;20317;-76
2023/11/28 08:05:45;;;;;;;;;;;;;;;6.84;56.23;98731.69;5071534;28;19920;-76
2023/11/28 08:08:11;;;;;;;;;;;;;;;6.83;56.89;98740.56;5071773;28;19912;-77
2023/11/28 08:10:36;;;;;;;;;;;;;;;6.83;56.29;98737.94;5075126;28;19916;-77
2023/11/28 08:13:01;;;;;;;;;;;;;;;6.85;56.14;98729.88;5091915;28;19918;-77
2023/11/28 08:15:27;;;;;;;;;;;;;;;6.86;57.12;98734.97;5091864;28;19912;-77
2023/11/28 08:17:52;;;;;;;;;;;;;;;6.87;56.38;98736.59;5091627;28;20450;-77
2023/11/28 08:20:18;;;;;;;;;;;;;;;6.88;57.61;98732.97;5091407;28;19927;-77
2023/11/28 08:22:43;;;;;;;;;;;;;;;6.92;57.47;98731.63;5093775;28;20015;-78
2023/11/28 08:25:09;;;;;;;;;;;;;;;6.94;57.85;98720.97;5095750;28;19919;-77
2023/11/28 08:27:34;;;;;;;;;;;;;;;6.92;58.13;98712.47;5095721;28;19912;-77
2023/11/28 08:29:59;;;;;;;;;;;;;;;6.89;57.51;98703.13;5093144;28;20306;-77
2023/11/28 08:32:25;;;;;;;;;;;;;;;6.88;57.71;98687.56;5075252;28;20320;-78
2023/11/28 08:34:50;;;;;;;;;;;;;;;6.87;58.29;98686.75;5075229;28;20008;-77
2023/11/28 08:37:15;;;;;;;;;;;;;;;6.86;59.57;98679.84;5075721;28;19912;-78
2023/11/28 08:39:41;;;;;;;;;;;;;;;6.87;58.40;98678.88;5075428;28;20433;-77
2023/11/28 08:42:06;;;;;;;;;;;;;;;6.88;58.72;98677.88;5075262;28;19918;-76
2023/11/28 08:44:32;;;;;;;;;;;;;;;6.88;58.37;98677.88;5075262;28;19963;-78
2023/11/28 08:46:57;;;;;;;;;;;;;;;6.93;57.81;98672.91;5073687;28;19912;-78
2023/11/28 08:49:23;;;;;;;;;;;;;;;6.94;58.08;98669.31;5070364;28;20389;-77
2023/11/28 08:51:48;;;;;;;;;;;;;;;7.01;57.79;98661.53;5080802;28;19916;-78
2023/11/28 08:54:14;;;;;;;;;;;;;;;7.03;58.97;98651.69;5074790;28;20007;-78
2023/11/28 08:56:39;;;;;;;;;;;;;;;7.04;58.74;98655.13;5074943;28;19962;-77
2023/11/28 08:59:05;;;;;;;;;;;;;;;6.98;59.25;98660.09;5074886;28;19913;-77
2023/11/28 09:01:30;;;;;;;;;;;;;;;6.97;58.55;98660.25;5074699;28;19912;-76
2023/11/28 09:03:56;;;;;;;;;;;;;;;6.98;58.87;98649.59;5093850;28;19924;-77
2023/11/28 09:06:21;;;;;;;;;;;;;;;6.96;58.62;98627.94;5086328;28;20014;-77
2023/11/28 09:08:46;;;;;;;;;;;;;;;6.97;58.14;98632.22;5055568;28;19934;-77
2023/11/28 09:11:14;;;;;;;;;;;;;;;7.00;58.68;98613.47;5059851;28;19927;-77
2023/11/28 09:13:40;;;;;;;;;;;;;;;7.05;57.09;98606.88;5054640;28;20471;-77
2023/11/28 09:16:09;;;;;;;;;;;;;;;7.03;57.71;98604.44;5072446;28;19923;-76
2023/11/28 09:18:37;;;;;;;;;;;;;;;6.99;57.22;98595.28;5089485;28;19990;-77
2023/11/28 09:21:04;;;;;;;;;;;;;;;6.97;58.96;98571.03;5083406;28;19916;-77
2023/11/28 09:23:32;;;;;;;;;;;;;;;6.96;57.74;98561.53;5067140;28;19916;-76
2023/11/28 09:25:58;;;;;;;;;;;;;;;6.96;60.13;98553.66;5074524;28;20342;-76
2023/11/28 09:28:23;;;;;;;;;;;;;;;6.95;58.52;98547.59;5074789;28;19995;-78
2023/11/28 09:30:48;;;;;;;;;;;;;;;6.95;60.15;98531.03;5064285;28;19962;-77
2023/11/28 09:33:14;;;;;;;;;;;;;;;6.95;58.05;98518.72;5073323;28;20316;-77
2023/11/28 09:35:40;;;;;;;;;;;;;;;6.93;59.78;98510.22;5073684;28;19919;-76
2023/11/28 09:38:07;;;;;;;;;;;;;;;6.95;59.77;98502.19;5075003;28;19904;-77
2023/11/28 09:40:32;;;;;;;;;;;;;;;6.95;60.21;98489.88;5074527;28;19916;-77
2023/11/28 09:42:57;;;;;;;;;;;;;;;6.98;60.06;98473.75;5077361;28;19916;-77
2023/11/28 09:45:23;;;;;;;;;;;;;;;7.02;59.03;98468.97;5087983;28;19925;-77
2023/11/28 09:47:49;;;;;;;;;;;;;;;7.04;57.79;98469.59;5072339;28;19967;-77
2023/11/28 09:50:14;;;;;;;;;;;;;;;7.08;59.48;98457.75;5082783;28;20390;-76
2023/11/28 09:52:43;;;;;;;;;;;;;;;7.09;60.83;98456.75;5070832;28;19917;-76
2023/11/28 09:55:08;;;;;;;;;;;;;;;7.09;60.01;98448.06;5073960;28;20435;-77
2023/11/28 09:57:35;;;;;;;;;;;;;;;7.08;60.70;98451.69;5060844;28;19917;-76
2023/11/28 10:00:02;;;;;;;;;;;;;;;7.06;60.80;98446.59;5061543;28;19917;-77
2023/11/28 10:02:27;;;;;;;;;;;;;;;7.05;59.99;98439.72;5076179;28;20407;-76
2023/11/28 10:04:53;;;;;;;;;;;;;;;7.07;58.95;98443.00;5082837;28;19991;-76
2023/11/28 10:07:23;;;;;;;;;;;;;;;7.06;61.55;98422.19;5091765;28;19924;-77
2023/11/28 10:09:49;;;;;;;;;;;;;;;7.07;61.09;98418.56;5075967;28;20006;-77
2023/11/28 10:12:15;;;;;;;;;;;;;;;7.17;59.05;98419.91;5074111;28;19955;-76
2023/11/28 10:14:41;;;;;;;;;;;;;;;7.34;59.75;98402.13;5071202;28;19916;-77
2023/11/28 10:17:08;;;;;;;;;;;;;;;7.43;60.62;98398.41;5072594;28;19917;-76
2023/11/28 10:19:34;;;;;;;;;;;;;;;7.53;59.25;98377.09;5064438;28;19963;-77
2023/11/28 10:22:02;;;;;;;;;;;;;;;7.54;59.44;98370.84;5080092;28;20363;-76
2023/11/28 10:24:28;;;;;;;;;;;;;;;7.56;59.13;98359.16;5093697;28;20377;-77
2023/11/28 10:26:55;;;;;;;;;;;;;;;7.57;60.81;98355.50;5093272;28;20384;-77
2023/11/28 10:29:20;;;;;;;;;;;;;;;7.58;60.19;98345.81;5092085;28;19912;-77
2023/11/28 10:31:46;;;;;;;;;;;;;;;7.56;61.14;98342.56;5053978;28;19924;-77
2023/11/28 10:34:14;;;;;;;;;;;;;;;7.55;60.45;98338.31;5051992;28;19912;-77
2023/11/28 10:36:43;;;;;;;;;;;;;;;7.55;61.30;98327.81;5053219;28;19920;-77
2023/11/28 10:39:12;;;;;;;;;;;;;;;7.58;59.89;98324.81;5055181;28;19969;-77
2023/11/28 10:41:38;;;;;;;;;;;;;;;7.60;61.75;98315.75;5075333;28;20004;-77
2023/11/28 10:44:04;;;;;;;;;;;;;;;7.59;61.43;98308.06;5072830;28;19954;-77
2023/11/28 10:46:32;;;;;;;;;;;;;;;7.56;61.90;98296.09;5058539;28;19964;-78
2023/11/28 10:48:59;;;;;;;;;;;;;;;7.60;60.12;98289.47;5063622;28;19925;-77
2023/11/28 10:51:26;;;;;;;;;;;;;;;7.64;61.06;98274.94;5092930;28;19908;-76
2023/11/28 10:53:54;;;;;;;;;;;;;;;7.64;60.73;98267.06;5080835;28;19955;-77
2023/11/28 10:56:20;;;;;;;;;;;;;;;7.64;62.24;98250.50;5068362;28;19917;-77
2023/11/28 10:58:46;;;;;;;;;;;;;;;7.61;62.49;98241.19;5069920;28;19974;-77
2023/11/28 11:01:12;;;;;;;;;;;;;;;7.62;62.78;98253.31;5072517;28;19908;-77
2023/11/28 11:03:38;;;;;;;;;;;;;;;7.65;63.22;98244.25;5072535;28;19912;-77
2023/11/28 11:06:05;;;;;;;;;;;;;;;7.59;63.74;98237.94;5070981;28;19926;-77
2023/11/28 11:08:30;;;;;;;;;;;;;;;7.58;62.61;98232.88;5063236;28;19916;-76
2023/11/28 11:10:57;;;;;;;;;;;;;;;7.54;63.77;98221.13;5077811;28;19917;-77
2023/11/28 11:13:25;;;;;;;;;;;;;;;7.54;61.91;98219.31;5072034;28;20371;-77
2023/11/28 11:15:50;;;;;;;;;;;;;;;7.55;63.13;98212.25;5070656;28;20321;-78
2023/11/28 11:18:25;;;;;;;;;;;;;;;7.55;63.51;98207.00;5062327;28;19917;-77
2023/11/28 11:20:53;;;;;;;;;;;;;;;7.64;60.72;98190.09;5074309;28;19920;-77
2023/11/28 11:23:18;;;;;;;;;;;;;;;7.61;62.33;98175.53;5072954;28;19916;-78
2023/11/28 11:25:50;;;;;;;;;;;;;;;7.61;63.76;98167.63;5069344;28;19920;-77
2023/11/28 11:28:16;;;;;;;;;;;;;;;7.60;65.63;98171.28;5055756;28;19917;-76
2023/11/28 11:30:42;;;;;;;;;;;;;;;7.61;64.96;98153.69;5084932;28;20316;-76
2023/11/28 11:33:10;;;;;;;;;;;;;;;7.60;65.07;98149.44;5092269;28;19912;-77
2023/11/28 11:35:54;;;;;;;;;;;;;;;7.62;66.18;98150.06;5076299;28;19916;-76
2023/11/28 11:38:26;;;;;;;;;;;;;;;7.61;63.05;98141.38;5069119;28;19923;-77
2023/11/28 11:40:52;;;;;;;;;;;;;;;7.63;65.06;98131.47;5090538;28;19923;-78
2023/11/28 11:43:18;;;;;;;;;;;;;;;7.61;64.80;98122.19;5082118;28;19916;-78
2023/11/28 11:45:47;;;;;;;;;;;;;;;7.62;65.14;98124.63;5091959;28;19912;-78
2023/11/28 11:48:22;;;;;;;;;;;;;;;7.63;63.56;98118.34;5092423;28;20419;-77
2023/11/28 11:50:47;;;;;;;;;;;;;;;7.62;65.67;98100.16;5089520;28;20477;-77
2023/11/28 11:53:13;;;;;;;;;;;;;;;7.63;63.66;98107.84;5091076;28;19920;-77
2023/11/28 11:55:44;;;;;;;;;;;;;;;7.63;65.72;98093.91;5083699;28;20325;-76
2023/11/28 11:58:11;;;;;;;;;;;;;;;7.65;63.56;98097.16;5082036;28;20056;-77
2023/11/28 12:00:37;;;;;;;;;;;;;;;7.64;63.67;98088.44;5072784;28;20410;-76
2023/11/28 12:03:02;;;;;;;;;;;;;;;7.64;66.41;98071.88;5071749;28;19912;-77
2023/11/28 12:05:27;;;;;;;;;;;;;;;7.65;64.71;98066.44;5071667;28;20431;-77
2023/11/28 12:07:55;;;;;;;;;;;;;;;7.68;66.50;98064.41;5070623;28;20218;-76
2023/11/28 12:10:20;;;;;;;;;;;;;;;7.69;67.45;98050.28;5069228;28;20004;-77
2023/11/28 12:12:47;;;;;;;;;;;;;;;7.73;64.24;98060.19;5053456;28;19940;-76
2023/11/28 12:15:13;;;;;;;;;;;;;;;7.75;65.08;98057.38;5056701;28;19967;-76
2023/11/28 12:17:39;;;;;;;;;;;;;;;7.79;66.11;98045.47;5051606;28;20003;-77
2023/11/28 12:20:06;;;;;;;;;;;;;;;7.80;66.68;98041.84;5051475;28;20386;-76
2023/11/28 12:22:33;;;;;;;;;;;;;;;7.82;66.74;98034.56;5066843;28;20381;-77
2023/11/28 12:24:59;;;;;;;;;;;;;;;7.80;66.81;98042.66;5064570;28;19963;-77
2023/11/28 12:27:24;;;;;;;;;;;;;;;7.80;69.65;98041.84;5069624;28;19956;-77
2023/11/28 12:29:50;;;;;;;;;;;;;;;7.81;66.53;98046.09;5063940;28;19916;-77
2023/11/28 12:32:15;;;;;;;;;;;;;;;7.84;66.31;98038.63;5067715;28;19924;-76
2023/11/28 12:34:41;;;;;;;;;;;;;;;7.85;66.91;98024.47;5068801;28;20316;-77
2023/11/28 12:37:07;;;;;;;;;;;;;;;7.88;66.67;98024.06;5079438;28;19916;-77
2023/11/28 12:39:32;;;;;;;;;;;;;;;7.87;66.73;98026.91;5085243;28;19932;-77
2023/11/28 12:41:58;;;;;;;;;;;;;;;7.87;67.92;98026.91;5054585;28;20450;-77
2023/11/28 12:44:30;;;;;;;;;;;;;;;7.87;67.67;98026.91;5067642;28;19917;-76
2023/11/28 12:46:57;;;;;;;;;;;;;;;7.88;67.60;98003.06;5075033;28;19977;-76
2023/11/28 12:49:23;;;;;;;;;;;;;;;7.92;66.38;98012.16;5070907;28;19920;-76